createdAt,value
2022-07-29T00:04:22.431Z,74.33
2022-07-29T00:09:25.973Z,74.43
2022-07-29T00:14:30.234Z,74.15
2022-07-29T00:19:33.616Z,73.97
2022-07-29T00:24:37.062Z,74.00
2022-07-29T00:29:40.438Z,74.39
2022-07-29T00:35:02.802Z,74.70
2022-07-29T00:40:07.431Z,74.91
2022-07-29T00:45:12.162Z,75.13
2022-07-29T00:50:16.012Z,74.94
2022-07-29T00:55:20.255Z,74.57
2022-07-29T01:00:28.371Z,74.17
2022-07-29T01:05:48.226Z,74.11
2022-07-29T01:10:56.313Z,74.02
2022-07-29T01:16:11.006Z,74.11
2022-07-29T01:21:54.549Z,74.24
2022-07-29T01:27:31.833Z,74.22
2022-07-29T01:32:39.241Z,74.56
2022-07-29T01:38:12.200Z,74.63
2022-07-29T01:43:24.265Z,74.60
2022-07-29T01:48:58.441Z,74.78
2022-07-29T01:54:29.232Z,75.01
2022-07-29T01:59:36.750Z,74.87
2022-07-29T02:04:42.365Z,75.08
2022-07-29T02:09:49.268Z,75.11
2022-07-29T02:14:56.225Z,75.16
2022-07-29T02:20:04.350Z,75.39
2022-07-29T02:25:13.744Z,75.54
2022-07-29T02:30:19.673Z,75.44
2022-07-29T02:35:24.329Z,75.58
2022-07-29T02:40:28.000Z,75.63
2022-07-29T02:45:31.791Z,75.44
2022-07-29T02:50:41.724Z,75.36
2022-07-29T02:55:54.160Z,75.78
2022-07-29T03:01:02.654Z,75.75
2022-07-29T03:06:08.654Z,76.14
2022-07-29T03:11:40.135Z,75.91
2022-07-29T03:16:52.453Z,75.94
2022-07-29T03:22:00.057Z,76.00
2022-07-29T03:27:06.653Z,75.97
2022-07-29T03:32:10.063Z,75.85
2022-07-29T03:37:13.895Z,75.79
2022-07-29T03:42:22.423Z,75.56
2022-07-29T03:47:39.296Z,75.36
2022-07-29T03:52:53.622Z,75.38
2022-07-29T03:57:59.824Z,75.53
2022-07-29T04:03:05.895Z,75.59
2022-07-29T04:08:14.124Z,75.68
2022-07-29T04:13:17.725Z,75.60
2022-07-29T04:18:21.117Z,75.51
2022-07-29T04:23:24.432Z,75.40
2022-07-29T04:28:27.912Z,75.51
2022-07-29T04:33:31.230Z,75.68
2022-07-29T04:38:34.590Z,75.55
2022-07-29T04:43:38.160Z,75.63
2022-07-29T04:48:42.237Z,75.77
2022-07-29T04:53:45.734Z,75.65
2022-07-29T04:58:49.164Z,75.83
2022-07-29T05:03:55.873Z,75.95
2022-07-29T05:09:01.828Z,75.71
2022-07-29T05:14:05.241Z,75.57
2022-07-29T05:19:13.970Z,75.56
2022-07-29T05:24:18.080Z,75.67
2022-07-29T05:29:42.726Z,75.76
2022-07-29T05:34:50.460Z,75.60
2022-07-29T05:39:56.595Z,75.38
2022-07-29T05:45:01.417Z,75.33
2022-07-29T05:50:05.981Z,74.81
2022-07-29T05:55:10.536Z,74.36
2022-07-29T06:00:14.733Z,73.96
2022-07-29T06:05:18.569Z,73.89
2022-07-29T06:10:23.973Z,73.46
2022-07-29T06:15:30.655Z,72.93
2022-07-29T06:20:34.374Z,71.63
2022-07-29T06:25:37.992Z,70.55
2022-07-29T06:30:41.627Z,69.57
2022-07-29T06:35:53.142Z,68.00
2022-07-29T06:41:03.912Z,66.64
2022-07-29T06:46:11.737Z,66.57
2022-07-29T06:51:15.441Z,65.95
2022-07-29T06:56:19.779Z,65.11
2022-07-29T07:01:23.281Z,63.96
2022-07-29T07:06:26.701Z,62.87
2022-07-29T07:11:30.435Z,62.01
2022-07-29T07:16:34.154Z,61.58
2022-07-29T07:21:37.662Z,60.72
2022-07-29T07:26:41.310Z,60.13
2022-07-29T07:31:45.154Z,59.28
2022-07-29T07:36:48.605Z,58.61
2022-07-29T07:41:52.030Z,57.12
2022-07-29T07:46:55.511Z,56.05
2022-07-29T07:51:58.872Z,55.33
2022-07-29T07:57:02.500Z,54.77
2022-07-29T08:02:07.103Z,54.15
2022-07-29T08:07:10.797Z,53.99
2022-07-29T08:12:14.468Z,53.06
2022-07-29T08:17:17.918Z,53.03
2022-07-29T08:22:21.338Z,52.65
2022-07-29T08:27:43.011Z,52.28
2022-07-29T08:32:54.250Z,51.81
2022-07-29T08:37:58.177Z,51.60
2022-07-29T08:43:10.884Z,51.81
2022-07-29T08:48:16.602Z,50.44
2022-07-29T08:53:20.579Z,50.51
2022-07-29T08:58:25.938Z,50.33
2022-07-29T09:03:34.170Z,49.97
2022-07-29T09:08:37.692Z,49.13
2022-07-29T09:13:41.507Z,48.40
2022-07-29T09:18:47.976Z,48.24
2022-07-29T09:24:20.695Z,48.37
2022-07-29T09:29:26.036Z,47.39
2022-07-29T09:34:32.849Z,47.99
2022-07-29T09:39:50.474Z,47.90
2022-07-29T09:44:53.915Z,47.21
2022-07-29T09:50:00.854Z,47.43
2022-07-29T09:55:10.372Z,47.83
2022-07-29T10:00:24.321Z,48.13
2022-07-29T10:05:36.478Z,47.49
2022-07-29T10:10:44.035Z,46.72
2022-07-29T10:15:47.673Z,46.62
2022-07-29T10:20:52.172Z,45.64
2022-07-29T10:25:57.654Z,45.83
2022-07-29T10:31:13.810Z,45.90
2022-07-29T10:36:35.017Z,45.25
2022-07-29T10:42:33.468Z,45.13
2022-07-29T10:47:38.540Z,44.33
2022-07-29T10:52:51.105Z,44.23
2022-07-29T10:58:31.490Z,44.29
2022-07-29T11:09:35.102Z,42.40
2022-07-29T11:14:57.997Z,42.63
2022-07-29T11:20:32.771Z,42.23
2022-07-29T11:25:42.770Z,42.22
2022-07-29T11:30:56.625Z,41.78
2022-07-29T11:36:28.567Z,41.32
2022-07-29T11:41:37.214Z,41.02
2022-07-29T11:46:53.872Z,41.47
2022-07-29T11:57:36.329Z,41.88
2022-07-29T12:07:03.404Z,41.67
2022-07-29T12:08:15.062Z,41.70
2022-07-29T12:13:22.090Z,41.12
2022-07-29T12:18:26.298Z,41.57
2022-07-29T12:23:35.108Z,40.78
2022-07-29T12:28:40.183Z,40.35
2022-07-29T12:33:54.884Z,40.75
2022-07-29T12:39:00.420Z,40.61
2022-07-29T12:44:04.458Z,40.26
2022-07-29T12:49:08.159Z,39.96
2022-07-29T12:54:15.288Z,40.01
2022-07-29T12:59:23.344Z,39.06
2022-07-29T13:04:31.965Z,38.66
2022-07-29T13:09:49.742Z,38.78
2022-07-29T13:14:53.212Z,39.30
2022-07-29T13:20:13.829Z,39.47
2022-07-29T13:25:33.238Z,39.81
2022-07-29T13:30:36.792Z,39.78
2022-07-29T13:35:49.058Z,40.01
2022-07-29T13:40:52.578Z,40.29
2022-07-29T13:45:56.235Z,40.04
2022-07-29T13:50:59.807Z,39.88
2022-07-29T13:56:03.855Z,39.70
2022-07-29T14:01:07.379Z,39.05
2022-07-29T14:06:10.783Z,39.01
2022-07-29T14:11:14.225Z,39.33
2022-07-29T14:16:17.871Z,39.56
2022-07-29T14:21:21.519Z,39.64
2022-07-29T14:26:25.209Z,39.67
2022-07-29T14:31:28.686Z,39.88
2022-07-29T14:36:32.120Z,39.09
2022-07-29T14:41:35.908Z,38.46
2022-07-29T14:46:40.526Z,38.22
2022-07-29T14:51:44.155Z,38.12
2022-07-29T14:56:48.081Z,37.99
2022-07-29T15:01:51.521Z,37.69
2022-07-29T15:06:54.951Z,38.09
2022-07-29T15:11:59.832Z,37.51
2022-07-29T15:17:04.653Z,37.35
2022-07-29T15:22:09.139Z,37.63
2022-07-29T15:27:15.426Z,37.92
2022-07-29T15:32:18.877Z,37.81
2022-07-29T15:37:22.462Z,37.47
2022-07-29T15:42:25.866Z,37.40
2022-07-29T15:47:29.383Z,37.10
2022-07-29T15:52:32.820Z,36.66
2022-07-29T15:57:36.311Z,36.01
2022-07-29T16:02:39.933Z,35.16
2022-07-29T16:07:43.449Z,34.56
2022-07-29T16:12:46.862Z,34.36
2022-07-29T16:17:50.728Z,33.88
2022-07-29T16:22:54.103Z,33.05
2022-07-29T16:27:59.911Z,32.75
2022-07-29T16:33:08.043Z,32.18
2022-07-29T16:38:12.292Z,33.24
2022-07-29T16:43:15.814Z,33.75
2022-07-29T16:48:19.258Z,34.00
2022-07-29T16:53:25.218Z,34.22
2022-07-29T16:58:30.773Z,34.90
2022-07-29T17:03:34.110Z,35.51
2022-07-29T17:08:37.479Z,35.67
2022-07-29T17:13:40.936Z,34.74
2022-07-29T17:18:44.260Z,33.68
2022-07-29T17:23:48.587Z,33.98
2022-07-29T17:28:52.226Z,33.61
2022-07-29T17:33:59.828Z,33.03
2022-07-29T17:39:08.789Z,33.03
2022-07-29T17:44:12.173Z,32.67
2022-07-29T17:49:15.652Z,32.77
2022-07-29T17:54:19.676Z,33.11
2022-07-29T17:59:23.129Z,33.83
2022-07-29T18:04:26.512Z,35.02
2022-07-29T18:09:30.369Z,36.19
2022-07-29T18:14:34.303Z,37.21
2022-07-29T18:19:37.934Z,38.19
2022-07-29T18:24:42.657Z,39.20
2022-07-29T18:29:46.072Z,40.16
2022-07-29T18:34:54.614Z,41.20
2022-07-29T18:39:59.603Z,41.90
2022-07-29T18:45:03.080Z,42.83
2022-07-29T18:50:08.571Z,43.45
2022-07-29T18:55:12.222Z,44.13
2022-07-29T19:00:16.567Z,44.94
2022-07-29T19:05:20.997Z,45.70
2022-07-29T19:10:24.367Z,46.10
2022-07-29T19:15:29.595Z,46.79
2022-07-29T19:20:33.389Z,47.38
2022-07-29T19:25:53.678Z,47.96
2022-07-29T19:30:57.706Z,48.71
2022-07-29T19:36:03.306Z,49.31
2022-07-29T19:41:07.326Z,50.07
2022-07-29T19:46:10.811Z,50.97
2022-07-29T19:51:14.363Z,51.56
2022-07-29T19:56:17.894Z,51.79
2022-07-29T20:01:21.482Z,52.17
2022-07-29T20:06:25.054Z,52.59
2022-07-29T20:11:29.991Z,53.08
2022-07-29T20:16:33.505Z,53.21
2022-07-29T20:21:37.222Z,53.99
2022-07-29T20:26:40.707Z,54.43
2022-07-29T20:31:44.265Z,54.65
2022-07-29T20:36:49.207Z,55.21
2022-07-29T20:41:53.025Z,55.73
2022-07-29T20:46:57.582Z,55.94
2022-07-29T20:52:01.227Z,56.58
2022-07-29T20:57:05.107Z,56.56
2022-07-29T21:02:08.831Z,57.07
2022-07-29T21:07:12.959Z,57.33
2022-07-29T21:12:16.374Z,57.57
2022-07-29T21:17:22.384Z,57.88
2022-07-29T21:22:26.068Z,58.17
2022-07-29T21:27:48.836Z,58.49
2022-07-29T21:32:52.279Z,59.07
2022-07-29T21:37:55.972Z,59.08
2022-07-29T21:42:59.386Z,59.72
2022-07-29T21:48:03.115Z,60.12
2022-07-29T21:53:06.624Z,60.31
2022-07-29T21:58:12.200Z,60.43
2022-07-29T22:03:16.220Z,60.95
2022-07-29T22:08:19.628Z,61.19
2022-07-29T22:13:23.046Z,61.51
2022-07-29T22:18:26.706Z,62.13
2022-07-29T22:23:30.073Z,62.17
2022-07-29T22:28:33.898Z,62.47
2022-07-29T22:33:37.517Z,62.62
2022-07-29T22:38:41.106Z,62.65
2022-07-29T22:43:44.451Z,62.88
2022-07-29T22:48:48.618Z,62.94
2022-07-29T22:53:52.400Z,62.88
2022-07-29T22:58:56.222Z,63.09
2022-07-29T23:04:00.134Z,63.28
2022-07-29T23:09:04.591Z,63.38
2022-07-29T23:14:09.616Z,63.71
2022-07-29T23:19:13.463Z,63.99
2022-07-29T23:24:16.962Z,64.29
2022-07-29T23:29:20.773Z,64.39
2022-07-29T23:34:24.319Z,64.85
2022-07-29T23:39:28.012Z,65.25
2022-07-29T23:44:31.353Z,65.18
2022-07-29T23:49:35.378Z,65.26
2022-07-29T23:54:38.792Z,65.21
2022-07-29T23:59:42.206Z,65.27
